createdAt,value
2022-11-21T00:00:35.055Z,314.97
2022-11-21T00:01:35.202Z,315.57
2022-11-21T00:02:35.243Z,316.47
2022-11-21T00:03:35.418Z,316.78
2022-11-21T00:04:35.410Z,316.17
2022-11-21T00:05:35.482Z,317.39
2022-11-21T00:06:35.560Z,316.47
2022-11-21T00:07:35.675Z,317.08
2022-11-21T00:08:35.849Z,316.47
2022-11-21T00:09:35.801Z,316.17
2022-11-21T00:10:35.864Z,316.47
2022-11-21T00:11:35.958Z,317.69
2022-11-21T00:12:36.054Z,317.69
2022-11-21T00:13:36.120Z,316.17
2022-11-21T00:14:36.316Z,315.87
2022-11-21T00:15:36.292Z,315.87
2022-11-21T00:16:36.383Z,315.87
2022-11-21T00:17:42.441Z,315.87
2022-11-21T00:18:36.534Z,315.87
2022-11-21T00:19:36.726Z,315.87
2022-11-21T00:20:36.675Z,318.30
2022-11-21T00:21:36.755Z,316.17
2022-11-21T00:22:36.849Z,315.57
2022-11-21T00:23:36.945Z,316.78
2022-11-21T00:24:37.029Z,315.57
2022-11-21T00:25:37.139Z,317.08
2022-11-21T00:26:37.215Z,317.39
2022-11-21T00:27:37.308Z,316.47
2022-11-21T00:28:37.382Z,317.69
2022-11-21T00:29:37.475Z,315.87
2022-11-21T00:30:37.650Z,317.69
2022-11-21T00:31:37.629Z,316.47
2022-11-21T00:32:37.710Z,314.67
2022-11-21T00:33:37.776Z,317.39
2022-11-21T00:34:37.851Z,318.00
2022-11-21T00:35:37.968Z,315.87
2022-11-21T00:36:38.063Z,316.17
2022-11-21T00:37:38.139Z,316.47
2022-11-21T00:38:38.230Z,316.78
2022-11-21T00:39:38.305Z,316.47
2022-11-21T00:40:38.376Z,315.87
2022-11-21T00:41:38.573Z,315.27
2022-11-21T00:42:38.540Z,316.78
2022-11-21T00:43:38.637Z,316.47
2022-11-21T00:44:38.728Z,317.08
2022-11-21T00:45:38.802Z,315.87
2022-11-21T00:46:38.885Z,316.17
2022-11-21T00:47:39.087Z,316.47
2022-11-21T00:48:45.041Z,316.47
2022-11-21T00:49:39.136Z,316.47
2022-11-21T00:50:39.220Z,317.69
2022-11-21T00:51:39.301Z,317.69
2022-11-21T00:52:39.384Z,316.47
2022-11-21T00:53:39.476Z,317.39
2022-11-21T00:54:39.540Z,317.69
2022-11-21T00:55:39.610Z,316.47
2022-11-21T00:56:39.690Z,316.47
2022-11-21T00:57:39.788Z,316.47
2022-11-21T00:58:39.878Z,315.27
2022-11-21T00:59:40.075Z,316.47
2022-11-21T01:00:40.174Z,314.97
2022-11-21T01:01:40.141Z,316.47
2022-11-21T01:02:40.217Z,316.17
2022-11-21T01:03:40.301Z,316.17
2022-11-21T01:04:40.397Z,316.78
2022-11-21T01:05:40.577Z,315.27
2022-11-21T01:06:40.566Z,315.87
2022-11-21T01:07:40.736Z,316.47
2022-11-21T01:08:40.712Z,316.47
2022-11-21T01:09:40.802Z,316.47
2022-11-21T01:10:40.894Z,317.08
2022-11-21T01:11:41.060Z,317.08
2022-11-21T01:12:41.061Z,316.47
2022-11-21T01:13:41.151Z,316.17
2022-11-21T01:14:41.245Z,316.78
2022-11-21T01:15:41.308Z,315.87
2022-11-21T01:16:41.372Z,316.78
2022-11-21T01:17:41.479Z,316.78
2022-11-21T01:18:41.536Z,317.08
2022-11-21T01:19:47.589Z,316.17
2022-11-21T01:20:41.684Z,317.69
2022-11-21T01:21:41.746Z,316.47
2022-11-21T01:22:41.826Z,316.78
2022-11-21T01:23:41.908Z,316.78
2022-11-21T01:24:41.978Z,317.39
2022-11-21T01:25:42.073Z,313.77
2022-11-21T01:26:42.157Z,316.47
2022-11-21T01:27:42.241Z,316.47
2022-11-21T01:28:42.320Z,315.57
2022-11-21T01:29:42.496Z,315.87
2022-11-21T01:30:42.476Z,318.00
2022-11-21T01:31:42.554Z,315.57
2022-11-21T01:32:42.646Z,316.47
2022-11-21T01:33:42.728Z,315.87
2022-11-21T01:34:42.790Z,317.08
2022-11-21T01:35:42.987Z,316.17
2022-11-21T01:36:42.963Z,315.27
2022-11-21T01:37:43.055Z,316.47
2022-11-21T01:38:43.154Z,318.30
2022-11-21T01:39:43.229Z,316.17
2022-11-21T01:40:43.311Z,315.57
2022-11-21T01:41:43.494Z,317.08
2022-11-21T01:42:43.487Z,313.77
2022-11-21T01:43:43.563Z,314.07
2022-11-21T01:44:43.646Z,316.47
2022-11-21T01:45:43.723Z,315.27
2022-11-21T01:46:43.841Z,316.47
2022-11-21T01:47:44.025Z,317.39
2022-11-21T01:48:43.992Z,317.39
2022-11-21T01:49:44.074Z,318.30
2022-11-21T01:50:50.116Z,317.69
2022-11-21T01:51:44.252Z,314.97
2022-11-21T01:52:44.336Z,316.47
2022-11-21T01:53:44.440Z,314.37
2022-11-21T01:54:44.501Z,315.87
2022-11-21T01:55:44.578Z,315.87
2022-11-21T01:56:44.659Z,317.08
2022-11-21T01:57:44.753Z,316.17
2022-11-21T01:58:44.851Z,316.17
2022-11-21T01:59:44.897Z,317.39
2022-11-21T02:00:45.041Z,316.47
2022-11-21T02:01:45.067Z,317.08
2022-11-21T02:02:45.134Z,316.47
2022-11-21T02:03:45.233Z,317.39
2022-11-21T02:04:45.392Z,316.47
2022-11-21T02:05:45.379Z,316.17
2022-11-21T02:06:45.489Z,316.47
2022-11-21T02:07:45.570Z,315.87
2022-11-21T02:08:45.668Z,317.69
2022-11-21T02:09:45.876Z,317.39
2022-11-21T02:10:45.823Z,317.39
2022-11-21T02:11:45.901Z,316.17
2022-11-21T02:12:45.996Z,315.87
2022-11-21T02:13:46.104Z,316.78
2022-11-21T02:14:46.172Z,316.47
2022-11-21T02:15:46.347Z,315.57
2022-11-21T02:16:46.352Z,317.08
2022-11-21T02:17:46.417Z,317.39
2022-11-21T02:18:46.522Z,316.17
2022-11-21T02:19:46.603Z,317.08
2022-11-21T02:20:46.685Z,319.23
2022-11-21T02:21:52.720Z,317.08
2022-11-21T02:22:46.819Z,317.39
2022-11-21T02:23:47.552Z,316.78
2022-11-21T02:24:46.988Z,317.08
2022-11-21T02:25:47.066Z,315.87
2022-11-21T02:26:47.159Z,317.39
2022-11-21T02:27:47.237Z,316.78
2022-11-21T02:28:47.339Z,317.08
2022-11-21T02:29:47.435Z,317.39
2022-11-21T02:30:47.494Z,317.39
2022-11-21T02:31:47.584Z,317.08
2022-11-21T02:32:47.665Z,314.67
2022-11-21T02:33:47.751Z,316.47
2022-11-21T02:34:47.815Z,317.08
2022-11-21T02:35:47.880Z,318.00
2022-11-21T02:36:47.958Z,315.27
2022-11-21T02:37:48.161Z,317.39
2022-11-21T02:38:48.132Z,317.69
2022-11-21T02:39:48.229Z,317.39
2022-11-21T02:40:48.329Z,316.17
2022-11-21T02:41:48.426Z,317.08
2022-11-21T02:42:52.492Z,317.39
2022-11-21T02:43:48.559Z,316.78
2022-11-21T02:44:48.641Z,316.17
2022-11-21T02:45:48.705Z,316.78
2022-11-21T02:46:48.799Z,315.87
2022-11-21T02:47:48.902Z,317.39
2022-11-21T02:48:49.003Z,316.47
2022-11-21T02:49:49.066Z,315.27
2022-11-21T02:50:49.142Z,318.61
2022-11-21T02:51:49.203Z,316.47
2022-11-21T02:52:55.257Z,317.08
2022-11-21T02:53:49.360Z,316.78
2022-11-21T02:54:49.463Z,317.39
2022-11-21T02:55:49.543Z,318.30
2022-11-21T02:56:49.620Z,317.69
2022-11-21T02:57:49.715Z,317.69
2022-11-21T02:58:49.815Z,317.39
2022-11-21T02:59:49.892Z,316.47
2022-11-21T03:00:50.129Z,317.69
2022-11-21T03:01:50.051Z,316.47
2022-11-21T03:02:50.146Z,315.87
2022-11-21T03:03:50.228Z,317.39
2022-11-21T03:04:50.302Z,315.57
2022-11-21T03:05:50.379Z,316.78
2022-11-21T03:06:50.491Z,318.30
2022-11-21T03:07:50.574Z,318.61
2022-11-21T03:08:50.661Z,317.69
2022-11-21T03:09:50.742Z,317.08
2022-11-21T03:10:50.850Z,314.37
2022-11-21T03:11:50.940Z,317.69
2022-11-21T03:12:51.050Z,317.39
2022-11-21T03:13:51.133Z,314.67
2022-11-21T03:14:51.212Z,318.00
2022-11-21T03:15:51.298Z,315.27
2022-11-21T03:16:51.359Z,317.08
2022-11-21T03:17:51.423Z,316.47
2022-11-21T03:18:51.597Z,315.87
2022-11-21T03:19:51.583Z,316.47
2022-11-21T03:20:51.695Z,316.78
2022-11-21T03:21:51.756Z,317.08
2022-11-21T03:22:51.837Z,316.78
2022-11-21T03:23:58.223Z,317.08
2022-11-21T03:24:51.985Z,317.69
2022-11-21T03:25:52.066Z,317.39
2022-11-21T03:26:52.130Z,317.69
2022-11-21T03:27:52.193Z,318.00
2022-11-21T03:28:52.251Z,318.92
2022-11-21T03:29:52.444Z,316.78
2022-11-21T03:30:52.447Z,318.00
2022-11-21T03:31:52.523Z,317.69
2022-11-21T03:32:52.615Z,318.30
2022-11-21T03:33:52.669Z,317.08
2022-11-21T03:34:52.761Z,317.69
2022-11-21T03:35:52.834Z,317.39
2022-11-21T03:36:52.940Z,317.69
2022-11-21T03:37:53.024Z,316.78
2022-11-21T03:38:53.115Z,317.69
2022-11-21T03:39:53.247Z,318.30
2022-11-21T03:40:53.381Z,317.39
2022-11-21T03:41:53.385Z,316.78
2022-11-21T03:42:53.447Z,317.69
2022-11-21T03:43:53.507Z,318.92
2022-11-21T03:44:53.588Z,317.39
2022-11-21T03:45:53.709Z,318.30
2022-11-21T03:46:53.756Z,317.08
2022-11-21T03:47:53.852Z,316.47
2022-11-21T03:48:53.914Z,318.30
2022-11-21T03:49:54.016Z,317.08
2022-11-21T03:50:54.100Z,316.47
2022-11-21T03:51:54.277Z,318.30
2022-11-21T03:52:54.254Z,316.78
2022-11-21T03:53:54.353Z,315.87
2022-11-21T03:55:00.401Z,317.39
2022-11-21T03:55:54.523Z,317.39
2022-11-21T03:56:54.723Z,318.92
2022-11-21T03:57:54.684Z,317.39
2022-11-21T03:58:54.833Z,318.92
2022-11-21T03:59:54.877Z,317.69
2022-11-21T04:00:54.986Z,316.47
2022-11-21T04:01:55.108Z,318.00
2022-11-21T04:02:55.261Z,317.39
2022-11-21T04:03:55.229Z,318.30
2022-11-21T04:04:55.307Z,314.97
2022-11-21T04:05:55.396Z,317.39
2022-11-21T04:06:55.475Z,318.30
2022-11-21T04:07:55.570Z,318.00
2022-11-21T04:08:55.651Z,318.30
2022-11-21T04:09:55.748Z,318.61
2022-11-21T04:10:55.831Z,317.69
2022-11-21T04:11:55.906Z,317.69
2022-11-21T04:12:56.006Z,318.61
2022-11-21T04:13:56.223Z,316.17
2022-11-21T04:14:56.191Z,318.61
2022-11-21T04:15:56.273Z,319.23
2022-11-21T04:16:56.364Z,317.39
2022-11-21T04:17:56.446Z,317.39
2022-11-21T04:18:56.643Z,320.15
2022-11-21T04:19:56.590Z,316.17
2022-11-21T04:20:56.667Z,318.00
2022-11-21T04:21:56.754Z,318.61
2022-11-21T04:22:56.839Z,317.39
2022-11-21T04:23:56.899Z,318.30
2022-11-21T04:24:57.635Z,318.92
2022-11-21T04:26:03.045Z,316.78
2022-11-21T04:26:57.133Z,318.00
2022-11-21T04:27:57.231Z,318.92
2022-11-21T04:28:57.314Z,318.61
2022-11-21T04:29:57.397Z,317.39
2022-11-21T04:31:00.619Z,318.00
2022-11-21T04:31:57.553Z,318.61
2022-11-21T04:32:57.612Z,317.69
2022-11-21T04:33:57.688Z,317.69
2022-11-21T04:34:57.794Z,318.00
2022-11-21T04:35:57.890Z,318.30
2022-11-21T04:36:58.013Z,318.00
2022-11-21T04:37:58.022Z,318.30
2022-11-21T04:38:58.092Z,321.08
2022-11-21T04:39:58.178Z,318.30
2022-11-21T04:40:58.244Z,319.53
2022-11-21T04:41:58.327Z,318.92
2022-11-21T04:42:58.419Z,318.00
2022-11-21T04:43:58.475Z,318.92
2022-11-21T04:44:58.554Z,317.69
2022-11-21T04:45:58.641Z,318.00
2022-11-21T04:47:03.752Z,319.84
2022-11-21T04:47:58.915Z,318.30
2022-11-21T04:48:58.899Z,318.61
2022-11-21T04:49:58.972Z,318.00
2022-11-21T04:50:59.046Z,319.23
2022-11-21T04:51:59.169Z,319.23
2022-11-21T04:52:59.230Z,318.00
2022-11-21T04:53:59.339Z,318.30
2022-11-21T04:54:59.415Z,318.61
2022-11-21T04:55:59.525Z,318.92
2022-11-21T04:57:05.558Z,318.30
2022-11-21T04:57:59.662Z,318.61
2022-11-21T04:58:59.783Z,319.53
2022-11-21T04:59:59.854Z,318.00
2022-11-21T05:00:59.967Z,319.23
2022-11-21T05:02:00.006Z,317.39
2022-11-21T05:03:00.085Z,318.61
2022-11-21T05:04:00.173Z,318.61
2022-11-21T05:05:00.367Z,318.61
2022-11-21T05:06:00.331Z,318.61
2022-11-21T05:07:00.468Z,316.78
2022-11-21T05:08:00.526Z,317.69
2022-11-21T05:09:00.616Z,318.61
2022-11-21T05:10:00.691Z,317.08
2022-11-21T05:11:00.777Z,318.61
2022-11-21T05:12:00.847Z,317.69
2022-11-21T05:13:00.934Z,318.00
2022-11-21T05:14:01.040Z,318.61
2022-11-21T05:15:01.110Z,317.69
2022-11-21T05:16:01.198Z,319.53
2022-11-21T05:17:01.266Z,318.00
2022-11-21T05:18:01.333Z,319.53
2022-11-21T05:19:01.413Z,318.00
2022-11-21T05:20:01.489Z,319.23
2022-11-21T05:21:01.599Z,318.61
2022-11-21T05:22:01.654Z,318.30
2022-11-21T05:23:01.712Z,319.23
2022-11-21T05:24:01.795Z,318.00
2022-11-21T05:25:01.907Z,316.78
2022-11-21T05:26:01.968Z,319.23
2022-11-21T05:27:02.068Z,319.53
2022-11-21T05:28:08.110Z,318.61
2022-11-21T05:29:02.222Z,318.61
2022-11-21T05:30:02.297Z,320.46
2022-11-21T05:31:02.379Z,318.00
2022-11-21T05:32:02.579Z,317.39
2022-11-21T05:33:02.539Z,318.92
2022-11-21T05:34:02.628Z,318.30
2022-11-21T05:35:02.736Z,318.92
2022-11-21T05:36:02.811Z,318.92
2022-11-21T05:37:02.888Z,318.30
2022-11-21T05:38:03.109Z,320.46
2022-11-21T05:39:03.078Z,319.84
2022-11-21T05:40:03.164Z,319.84
2022-11-21T05:41:03.269Z,317.69
2022-11-21T05:42:03.561Z,318.30
2022-11-21T05:43:03.409Z,318.00
2022-11-21T05:44:03.486Z,318.61
2022-11-21T05:45:03.546Z,319.53
2022-11-21T05:46:03.643Z,318.00
2022-11-21T05:47:03.707Z,318.00
2022-11-21T05:48:03.779Z,319.53
2022-11-21T05:49:03.857Z,318.61
2022-11-21T05:50:03.949Z,318.00
2022-11-21T05:51:04.013Z,319.23
2022-11-21T05:52:04.100Z,319.53
2022-11-21T05:53:04.162Z,318.61
2022-11-21T05:54:04.238Z,320.46
2022-11-21T05:55:04.324Z,319.53
2022-11-21T05:56:04.428Z,319.53
2022-11-21T05:57:04.485Z,318.61
2022-11-21T05:58:04.565Z,318.30
2022-11-21T05:59:10.632Z,316.47
2022-11-21T06:00:04.764Z,318.92
2022-11-21T06:01:04.844Z,319.53
2022-11-21T06:02:04.926Z,320.15
2022-11-21T06:03:05.057Z,319.53
2022-11-21T06:04:05.127Z,320.77
2022-11-21T06:05:05.215Z,318.92
2022-11-21T06:06:05.300Z,319.84
2022-11-21T06:07:05.603Z,318.92
2022-11-21T06:08:05.470Z,319.84
2022-11-21T06:09:05.556Z,318.92
2022-11-21T06:10:05.649Z,321.08
2022-11-21T06:11:05.749Z,319.84
2022-11-21T06:12:05.827Z,318.30
2022-11-21T06:13:06.006Z,319.84
2022-11-21T06:14:05.997Z,317.39
2022-11-21T06:15:06.076Z,317.69
2022-11-21T06:16:06.161Z,318.92
2022-11-21T06:17:06.250Z,319.23
2022-11-21T06:18:06.346Z,319.84
2022-11-21T06:19:06.505Z,317.39
2022-11-21T06:20:06.490Z,320.46
2022-11-21T06:21:06.586Z,319.53
2022-11-21T06:22:06.668Z,321.40
2022-11-21T06:23:06.756Z,319.23
2022-11-21T06:24:06.852Z,320.15
2022-11-21T06:25:06.946Z,319.53
2022-11-21T06:26:06.996Z,319.23
2022-11-21T06:27:07.077Z,320.77
2022-11-21T06:28:07.175Z,320.77
2022-11-21T06:29:07.254Z,321.40
2022-11-21T06:30:15.488Z,320.46
2022-11-21T06:31:07.412Z,321.08
2022-11-21T06:32:07.466Z,320.77
2022-11-21T06:33:07.532Z,320.46
2022-11-21T06:34:07.609Z,321.71
2022-11-21T06:35:07.695Z,320.77
2022-11-21T06:36:07.798Z,319.84
2022-11-21T06:37:07.852Z,320.46
2022-11-21T06:38:07.932Z,320.77
2022-11-21T06:39:08.029Z,321.40
2022-11-21T06:40:08.087Z,321.71
2022-11-21T06:41:08.172Z,319.23
2022-11-21T06:42:08.360Z,322.02
2022-11-21T06:43:08.315Z,320.46
2022-11-21T06:44:08.395Z,321.40
2022-11-21T06:45:08.480Z,320.15
2022-11-21T06:46:08.590Z,322.02
2022-11-21T06:47:08.740Z,322.02
2022-11-21T06:48:08.739Z,321.40
2022-11-21T06:49:08.819Z,320.15
2022-11-21T06:50:08.892Z,322.02
2022-11-21T06:51:08.968Z,321.71
2022-11-21T06:52:09.072Z,321.40
2022-11-21T06:53:09.241Z,322.34
2022-11-21T06:54:12.536Z,321.71
2022-11-21T06:55:09.309Z,321.08
2022-11-21T06:56:09.396Z,322.97
2022-11-21T06:57:09.491Z,321.71
2022-11-21T06:58:09.549Z,321.71
2022-11-21T06:59:09.627Z,322.65
2022-11-21T07:00:09.739Z,321.71
2022-11-21T07:01:15.827Z,323.92
2022-11-21T07:02:09.899Z,319.84
2022-11-21T07:03:09.962Z,322.02
2022-11-21T07:04:10.072Z,320.46
2022-11-21T07:05:10.135Z,321.71
2022-11-21T07:06:10.245Z,322.02
2022-11-21T07:07:10.360Z,322.34
2022-11-21T07:08:13.277Z,321.40
2022-11-21T07:09:32.172Z,321.40
2022-11-21T07:10:10.536Z,319.84
2022-11-21T07:11:24.491Z,322.65
2022-11-21T07:12:10.673Z,322.02
2022-11-21T07:13:10.740Z,322.34
2022-11-21T07:14:10.845Z,322.02
2022-11-21T07:15:10.902Z,322.34
2022-11-21T07:16:11.088Z,322.65
2022-11-21T07:17:11.044Z,322.65
2022-11-21T07:18:11.119Z,321.08
2022-11-21T07:19:11.217Z,322.65
2022-11-21T07:20:11.312Z,321.40
2022-11-21T07:21:11.385Z,320.77
2022-11-21T07:22:11.645Z,320.77
2022-11-21T07:23:11.578Z,321.08
2022-11-21T07:24:11.664Z,320.15
2022-11-21T07:25:11.754Z,322.65
2022-11-21T07:26:11.820Z,319.53
2022-11-21T07:27:11.901Z,322.65
2022-11-21T07:28:12.004Z,322.34
2022-11-21T07:29:12.093Z,322.02
2022-11-21T07:30:12.201Z,322.34
2022-11-21T07:31:14.112Z,320.77
2022-11-21T07:32:18.307Z,320.77
2022-11-21T07:33:12.442Z,320.77
2022-11-21T07:34:12.551Z,321.71
2022-11-21T07:35:12.598Z,321.40
2022-11-21T07:36:12.716Z,321.08
2022-11-21T07:37:12.771Z,321.71
2022-11-21T07:38:12.848Z,320.77
2022-11-21T07:39:12.960Z,321.71
2022-11-21T07:40:13.118Z,322.34
2022-11-21T07:41:13.095Z,321.71
2022-11-21T07:42:13.182Z,321.08
2022-11-21T07:43:13.263Z,320.46
2022-11-21T07:44:13.351Z,321.40
2022-11-21T07:45:13.407Z,321.08
2022-11-21T07:46:13.484Z,322.65
2022-11-21T07:47:13.561Z,321.08
2022-11-21T07:48:13.679Z,320.15
2022-11-21T07:49:13.763Z,321.40
2022-11-21T07:50:13.821Z,321.71
2022-11-21T07:51:13.912Z,322.02
2022-11-21T07:52:14.117Z,321.71
2022-11-21T07:53:14.092Z,322.02
2022-11-21T07:54:14.165Z,320.15
2022-11-21T07:55:14.242Z,322.34
2022-11-21T07:56:14.341Z,322.02
2022-11-21T07:57:14.446Z,320.46
2022-11-21T07:58:14.521Z,321.08
2022-11-21T07:59:14.578Z,321.71
2022-11-21T08:00:14.675Z,322.65
2022-11-21T08:01:14.780Z,320.46
2022-11-21T08:02:14.879Z,322.02
2022-11-21T08:03:20.908Z,321.71
2022-11-21T08:04:15.008Z,320.46
2022-11-21T08:05:15.088Z,321.40
2022-11-21T08:06:15.174Z,322.65
2022-11-21T08:07:15.332Z,321.08
2022-11-21T08:08:15.343Z,322.02
2022-11-21T08:09:15.442Z,321.08
2022-11-21T08:10:15.524Z,320.77
2022-11-21T08:11:15.592Z,321.40
2022-11-21T08:12:15.714Z,320.77
2022-11-21T08:13:15.744Z,319.23
2022-11-21T08:14:15.858Z,320.77
2022-11-21T08:15:15.900Z,321.71
2022-11-21T08:16:15.987Z,322.34
2022-11-21T08:17:16.058Z,321.08
2022-11-21T08:18:16.186Z,321.71
2022-11-21T08:19:16.233Z,322.34
2022-11-21T08:20:16.479Z,321.08
2022-11-21T08:21:19.798Z,321.71
2022-11-21T08:22:16.460Z,322.34
2022-11-21T08:23:16.520Z,321.08
2022-11-21T08:24:16.592Z,320.77
2022-11-21T08:25:16.823Z,321.40
2022-11-21T08:26:16.770Z,321.08
2022-11-21T08:27:16.828Z,321.71
2022-11-21T08:28:16.912Z,322.02
2022-11-21T08:29:16.977Z,319.84
2022-11-21T08:30:17.040Z,321.71
2022-11-21T08:31:17.251Z,321.71
2022-11-21T08:32:17.201Z,321.71
2022-11-21T08:33:17.293Z,319.84
2022-11-21T08:34:23.349Z,321.08
2022-11-21T08:35:17.441Z,322.34
2022-11-21T08:36:17.535Z,321.71
2022-11-21T08:37:17.621Z,320.77
2022-11-21T08:38:17.667Z,320.46
2022-11-21T08:39:17.742Z,320.77
2022-11-21T08:40:17.838Z,321.08
2022-11-21T08:41:18.040Z,321.08
2022-11-21T08:42:18.006Z,321.71
2022-11-21T08:43:18.078Z,321.71
2022-11-21T08:44:18.174Z,321.40
2022-11-21T08:45:18.234Z,321.40
2022-11-21T08:46:18.306Z,321.40
2022-11-21T08:47:18.415Z,322.02
2022-11-21T08:48:18.515Z,320.46
2022-11-21T08:49:18.576Z,321.08
2022-11-21T08:50:18.656Z,321.40
2022-11-21T08:51:18.740Z,320.77
2022-11-21T08:52:18.806Z,321.08
2022-11-21T08:53:18.876Z,320.15
2022-11-21T08:54:19.070Z,321.40
2022-11-21T08:55:19.031Z,321.08
2022-11-21T08:56:19.111Z,320.77
2022-11-21T08:57:19.179Z,320.46
2022-11-21T08:58:19.264Z,320.46
2022-11-21T08:59:19.352Z,321.08
2022-11-21T09:00:19.555Z,318.30
2022-11-21T09:01:19.576Z,321.08
2022-11-21T09:02:19.586Z,321.08
2022-11-21T09:03:23.559Z,319.84
2022-11-21T09:04:19.763Z,320.15
2022-11-21T09:05:26.052Z,321.40
2022-11-21T09:06:19.955Z,319.84
2022-11-21T09:07:20.059Z,320.46
2022-11-21T09:08:20.101Z,319.53
2022-11-21T09:09:25.095Z,321.08
2022-11-21T09:10:20.255Z,320.77
2022-11-21T09:11:20.448Z,321.08
2022-11-21T09:12:20.405Z,320.15
2022-11-21T09:13:20.482Z,318.92
2022-11-21T09:14:20.571Z,321.40
2022-11-21T09:15:20.664Z,321.40
2022-11-21T09:16:20.941Z,321.40
2022-11-21T09:17:20.854Z,318.61
2022-11-21T09:18:20.961Z,319.84
2022-11-21T09:19:21.037Z,319.84
2022-11-21T09:20:21.180Z,320.46
2022-11-21T09:21:21.189Z,318.92
2022-11-21T09:22:21.270Z,320.15
2022-11-21T09:23:21.371Z,319.84
2022-11-21T09:24:21.460Z,319.53
2022-11-21T09:25:21.562Z,320.46
2022-11-21T09:26:21.601Z,318.00
2022-11-21T09:27:21.785Z,318.61
2022-11-21T09:28:21.755Z,316.47
2022-11-21T09:29:21.855Z,318.92
2022-11-21T09:30:22.009Z,317.39
2022-11-21T09:31:22.009Z,319.53
2022-11-21T09:32:22.096Z,319.53
2022-11-21T09:33:22.205Z,318.92
2022-11-21T09:34:22.240Z,319.53
2022-11-21T09:35:22.326Z,318.30
2022-11-21T09:36:28.395Z,318.30
2022-11-21T09:37:22.492Z,316.78
2022-11-21T09:38:24.356Z,318.61
2022-11-21T09:39:22.673Z,318.92
2022-11-21T09:40:22.776Z,318.30
2022-11-21T09:41:22.869Z,318.61
2022-11-21T09:42:22.951Z,320.15
2022-11-21T09:43:23.024Z,319.53
2022-11-21T09:44:23.221Z,318.00
2022-11-21T09:45:23.190Z,318.61
2022-11-21T09:46:23.309Z,319.23
2022-11-21T09:47:23.350Z,319.53
2022-11-21T09:48:23.438Z,317.69
2022-11-21T09:49:23.644Z,318.61
2022-11-21T09:50:23.650Z,318.30
2022-11-21T09:51:23.701Z,318.61
2022-11-21T09:52:23.772Z,318.30
2022-11-21T09:53:23.857Z,319.23
2022-11-21T09:54:23.988Z,317.08
2022-11-21T09:55:24.157Z,317.69
2022-11-21T09:56:24.130Z,317.69
2022-11-21T09:57:24.178Z,320.15
2022-11-21T09:58:24.240Z,318.92
2022-11-21T09:59:24.301Z,318.30
2022-11-21T10:00:24.420Z,317.08
2022-11-21T10:01:24.598Z,317.39
2022-11-21T10:02:24.557Z,318.30
2022-11-21T10:03:24.648Z,318.61
2022-11-21T10:04:24.694Z,318.61
2022-11-21T10:05:24.771Z,319.23
2022-11-21T10:06:24.855Z,318.92
2022-11-21T10:07:31.023Z,318.30
2022-11-21T10:08:25.008Z,318.00
2022-11-21T10:09:25.092Z,319.23
2022-11-21T10:10:25.137Z,318.61
2022-11-21T10:11:25.216Z,318.30
2022-11-21T10:12:25.308Z,317.69
2022-11-21T10:13:25.453Z,316.78
2022-11-21T10:14:25.821Z,319.23
2022-11-21T10:15:25.526Z,317.08
2022-11-21T10:16:25.609Z,317.69
2022-11-21T10:17:25.702Z,316.78
2022-11-21T10:18:25.822Z,316.47
2022-11-21T10:19:25.900Z,316.47
2022-11-21T10:20:25.952Z,317.39
2022-11-21T10:21:26.055Z,316.47
2022-11-21T10:22:26.130Z,315.87
2022-11-21T10:23:26.222Z,317.39
2022-11-21T10:24:26.652Z,317.39
2022-11-21T10:25:27.457Z,316.78
2022-11-21T10:26:26.498Z,318.30
2022-11-21T10:27:26.579Z,317.08
2022-11-21T10:28:26.664Z,318.92
2022-11-21T10:29:26.748Z,317.39
2022-11-21T10:30:26.856Z,315.87
2022-11-21T10:31:26.938Z,316.78
2022-11-21T10:32:27.007Z,315.27
2022-11-21T10:33:27.088Z,316.47
2022-11-21T10:34:27.604Z,317.39
2022-11-21T10:35:27.234Z,316.47
2022-11-21T10:36:27.318Z,314.97
2022-11-21T10:37:27.505Z,317.39
2022-11-21T10:38:33.420Z,317.69
2022-11-21T10:39:27.539Z,316.17
2022-11-21T10:40:27.623Z,315.27
2022-11-21T10:41:27.716Z,314.97
2022-11-21T10:42:27.828Z,314.67
2022-11-21T10:43:28.008Z,312.88
2022-11-21T10:44:28.249Z,315.87
2022-11-21T10:45:28.047Z,315.87
2022-11-21T10:46:28.147Z,315.27
2022-11-21T10:47:28.225Z,317.69
2022-11-21T10:48:28.326Z,317.39
2022-11-21T10:49:28.513Z,315.27
2022-11-21T10:50:28.511Z,316.78
2022-11-21T10:51:28.585Z,315.57
2022-11-21T10:52:28.666Z,316.47
2022-11-21T10:53:28.734Z,315.27
2022-11-21T10:54:29.183Z,315.87
2022-11-21T10:55:28.896Z,316.17
2022-11-21T10:56:28.956Z,314.67
2022-11-21T10:57:29.043Z,315.87
2022-11-21T10:58:29.131Z,314.37
2022-11-21T10:59:31.184Z,316.47
2022-11-21T11:00:29.454Z,314.07
2022-11-21T11:01:29.452Z,314.97
2022-11-21T11:02:29.542Z,315.27
2022-11-21T11:03:29.608Z,314.07
2022-11-21T11:04:31.911Z,316.47
2022-11-21T11:05:29.725Z,315.27
2022-11-21T11:06:29.955Z,314.07
2022-11-21T11:07:29.924Z,315.27
2022-11-21T11:08:29.949Z,314.97
2022-11-21T11:09:36.001Z,313.47
2022-11-21T11:10:30.112Z,314.07
2022-11-21T11:11:30.181Z,313.77
2022-11-21T11:12:30.286Z,314.37
2022-11-21T11:13:47.351Z,314.07
2022-11-21T11:14:30.743Z,313.77
2022-11-21T11:15:30.555Z,313.47
2022-11-21T11:16:30.606Z,313.18
2022-11-21T11:17:31.087Z,313.47
2022-11-21T11:18:30.775Z,311.99
2022-11-21T11:19:37.056Z,313.18
2022-11-21T11:20:30.963Z,313.18
2022-11-21T11:21:31.053Z,311.99
2022-11-21T11:22:31.149Z,311.99
2022-11-21T11:23:31.365Z,311.11
2022-11-21T11:24:31.320Z,313.77
2022-11-21T11:25:31.370Z,312.88
2022-11-21T11:26:31.443Z,312.58
2022-11-21T11:27:31.511Z,314.67
2022-11-21T11:28:31.710Z,311.70
2022-11-21T11:29:32.103Z,310.82
2022-11-21T11:30:31.778Z,312.88
2022-11-21T11:31:31.841Z,311.99
2022-11-21T11:32:31.910Z,312.88
2022-11-21T11:33:31.983Z,311.99
2022-11-21T11:34:32.081Z,313.47
2022-11-21T11:35:32.148Z,312.29
2022-11-21T11:36:32.243Z,312.88
2022-11-21T11:37:37.173Z,311.70
2022-11-21T11:38:32.463Z,312.88
2022-11-21T11:39:32.643Z,312.88
2022-11-21T11:40:38.579Z,311.41
2022-11-21T11:41:32.709Z,312.29
2022-11-21T11:42:32.791Z,313.18
2022-11-21T11:43:32.881Z,311.99
2022-11-21T11:44:32.979Z,312.88
2022-11-21T11:45:33.079Z,311.41
2022-11-21T11:46:33.159Z,312.29
2022-11-21T11:47:33.315Z,311.11
2022-11-21T11:48:45.114Z,311.99
2022-11-21T11:49:33.681Z,310.24
2022-11-21T11:50:33.478Z,313.18
2022-11-21T11:51:33.616Z,312.58
2022-11-21T11:52:33.779Z,311.99
2022-11-21T11:53:33.713Z,311.70
2022-11-21T11:54:33.776Z,310.53
2022-11-21T11:55:33.895Z,312.29
2022-11-21T11:56:33.956Z,313.18
2022-11-21T11:57:34.020Z,311.70
2022-11-21T11:58:34.147Z,311.11
2022-11-21T11:59:34.170Z,311.70
2022-11-21T12:00:34.274Z,311.99
2022-11-21T12:01:34.344Z,310.82
2022-11-21T12:02:34.536Z,311.99
2022-11-21T12:03:34.476Z,312.88
2022-11-21T12:04:34.557Z,311.70
2022-11-21T12:05:34.635Z,312.29
2022-11-21T12:07:17.981Z,311.11
2022-11-21T12:08:42.907Z,311.11
2022-11-21T12:09:35.010Z,311.99
2022-11-21T12:10:35.053Z,311.11
2022-11-21T12:11:41.101Z,311.41
2022-11-21T12:12:35.230Z,311.11
2022-11-21T12:13:35.341Z,312.58
2022-11-21T12:14:35.408Z,311.70
2022-11-21T12:15:35.484Z,312.58
2022-11-21T12:16:35.607Z,311.99
2022-11-21T12:17:35.669Z,310.82
2022-11-21T12:18:35.884Z,311.70
2022-11-21T12:19:35.888Z,311.41
2022-11-21T12:20:35.986Z,313.18
2022-11-21T12:21:36.066Z,311.70
2022-11-21T12:22:36.145Z,313.47
2022-11-21T12:23:36.238Z,311.70
2022-11-21T12:24:42.533Z,312.88
2022-11-21T12:25:36.408Z,312.58
2022-11-21T12:26:36.475Z,313.47
2022-11-21T12:27:36.551Z,311.41
2022-11-21T12:28:36.630Z,311.41
2022-11-21T12:29:36.822Z,311.70
2022-11-21T12:30:36.819Z,310.24